createdAt,value
2023-04-02T00:16:27.455Z,6.80
2023-04-02T01:37:41.242Z,7.60
2023-04-02T01:41:22.222Z,7.00
2023-04-02T01:45:06.242Z,6.90
2023-04-02T01:48:50.266Z,6.50
2023-04-02T01:52:10.265Z,6.50
2023-04-02T01:56:13.838Z,6.40
2023-04-02T02:31:55.037Z,5.70
2023-04-02T02:34:33.974Z,6.40
2023-04-02T02:37:13.141Z,6.70
2023-04-02T02:39:57.365Z,6.90
2023-04-02T02:42:37.069Z,6.80
2023-04-02T03:38:56.210Z,5.90
2023-04-02T03:42:12.175Z,5.80
2023-04-02T03:45:15.465Z,5.20
2023-04-02T03:48:13.363Z,5.50
2023-04-02T03:51:27.333Z,4.20
2023-04-02T03:55:13.220Z,3.80
2023-04-02T03:59:10.358Z,4.20
2023-04-02T04:02:57.181Z,3.50
2023-04-02T04:06:50.229Z,3.20
2023-04-02T04:10:24.639Z,4.30
2023-04-02T04:12:56.609Z,4.20
2023-04-02T04:15:42.148Z,4.30
2023-04-02T04:18:42.587Z,4.00
2023-04-02T04:23:50.214Z,4.50
2023-04-02T04:26:31.221Z,4.70
2023-04-02T04:31:47.266Z,5.80
2023-04-02T04:34:23.134Z,4.80
2023-04-02T04:36:57.600Z,5.70
2023-04-02T04:39:43.332Z,4.70
2023-04-02T04:42:21.067Z,4.50
2023-04-02T04:45:00.539Z,4.90
2023-04-02T04:47:37.408Z,5.60
2023-04-02T04:50:18.125Z,4.70
2023-04-02T04:52:46.756Z,5.30
2023-04-02T04:55:35.473Z,5.50
2023-04-02T04:58:11.332Z,5.80
2023-04-02T05:00:55.594Z,5.10
2023-04-02T05:03:35.228Z,5.50
2023-04-02T05:06:18.863Z,5.20
2023-04-02T05:34:08.915Z,3.40
2023-04-02T05:37:19.814Z,3.50
2023-04-02T05:40:13.606Z,3.10
2023-04-02T05:42:50.200Z,3.00
2023-04-02T05:45:21.460Z,3.40
2023-04-02T05:48:00.104Z,2.80
2023-04-02T05:50:43.117Z,3.60
2023-04-02T05:53:47.181Z,5.30
2023-04-02T07:00:40.207Z,6.00
2023-04-02T07:25:35.724Z,5.80
2023-04-02T07:36:10.080Z,7.70
2023-04-02T07:39:23.207Z,6.30
2023-04-02T07:41:59.817Z,7.00
2023-04-02T07:44:29.546Z,7.00
2023-04-02T07:50:40.836Z,13.20
2023-04-02T07:53:33.342Z,8.80
2023-04-02T07:56:04.113Z,5.50
2023-04-02T07:58:33.000Z,5.80
2023-04-02T08:01:08.947Z,7.00
2023-04-02T08:03:55.114Z,6.20
2023-04-02T08:07:57.562Z,6.90
2023-04-02T08:11:11.043Z,5.80
2023-04-02T08:13:43.718Z,7.20
2023-04-02T08:16:14.419Z,8.70
2023-04-02T08:18:48.029Z,8.50
2023-04-02T08:21:59.902Z,8.30
2023-04-02T09:08:37.235Z,7.80
2023-04-02T09:11:31.401Z,7.60
2023-04-02T09:14:06.004Z,7.90
2023-04-02T09:16:41.235Z,6.30
2023-04-02T09:19:21.182Z,7.50
2023-04-02T09:22:03.793Z,7.00
2023-04-02T09:24:32.609Z,8.80
2023-04-02T09:27:00.972Z,8.40
2023-04-02T09:29:43.509Z,6.80
2023-04-02T09:32:39.961Z,7.60
2023-04-02T09:35:24.561Z,6.80
2023-04-02T09:38:30.798Z,6.80
2023-04-02T09:41:09.925Z,6.30
2023-04-02T09:43:41.790Z,6.50
2023-04-02T09:46:22.579Z,7.60
2023-04-02T09:48:58.488Z,6.20
2023-04-02T09:51:33.424Z,6.00
2023-04-02T09:54:04.522Z,6.30
2023-04-02T09:57:00.852Z,6.50
2023-04-02T09:59:29.033Z,5.30
2023-04-02T10:02:04.533Z,5.40
2023-04-02T10:04:37.877Z,5.70
2023-04-02T10:07:07.046Z,5.10
2023-04-02T10:09:37.999Z,4.10
2023-04-02T10:12:12.540Z,4.80
2023-04-02T10:14:45.337Z,4.50
2023-04-02T10:17:23.980Z,4.90
2023-04-02T10:20:01.621Z,5.00
2023-04-02T10:22:30.372Z,5.20
2023-04-02T10:25:01.579Z,5.10
2023-04-02T10:27:41.578Z,6.90
2023-04-02T10:30:23.962Z,6.40
2023-04-02T10:33:00.867Z,6.40
2023-04-02T10:35:40.191Z,6.80
2023-04-02T10:38:47.185Z,8.00
2023-04-02T10:41:51.600Z,8.80
2023-04-02T10:44:25.580Z,7.20
2023-04-02T10:47:02.657Z,8.50
2023-04-02T10:49:51.379Z,9.90
2023-04-02T10:52:45.967Z,9.30
2023-04-02T10:55:32.184Z,6.50
2023-04-02T10:58:07.843Z,6.80
2023-04-02T11:00:45.375Z,5.50
2023-04-02T11:03:35.343Z,6.00
2023-04-02T11:09:05.371Z,9.10
2023-04-02T11:11:46.325Z,8.80
2023-04-02T11:14:24.251Z,6.60
2023-04-02T11:17:00.513Z,9.80
2023-04-02T11:19:34.072Z,5.80
2023-04-02T11:22:15.305Z,7.90
2023-04-02T11:24:52.430Z,8.90
2023-04-02T11:27:36.690Z,6.40
2023-04-02T11:30:08.353Z,9.70
2023-04-02T11:32:42.793Z,12.10
2023-04-02T11:35:27.155Z,11.70
2023-04-02T11:38:17.284Z,6.30
2023-04-02T11:40:49.463Z,6.00
2023-04-02T11:43:32.784Z,5.70
2023-04-02T11:46:26.961Z,6.20
2023-04-02T11:49:38.161Z,6.80
2023-04-02T11:52:21.104Z,7.30
2023-04-02T11:55:01.369Z,5.30
2023-04-02T11:57:37.037Z,6.20
2023-04-02T12:00:18.233Z,6.50
2023-04-02T12:03:16.304Z,6.30
2023-04-02T12:05:58.699Z,4.90
2023-04-02T12:08:57.181Z,4.90
2023-04-02T12:12:20.111Z,6.10
2023-04-02T12:15:27.102Z,5.60
2023-04-02T12:18:53.062Z,5.20
2023-04-02T12:34:23.951Z,6.80
2023-04-02T12:37:03.919Z,7.50
2023-04-02T12:42:06.668Z,6.20
2023-04-02T12:44:37.440Z,6.10
2023-04-02T12:47:06.248Z,6.10
2023-04-02T12:49:38.689Z,8.80
2023-04-02T12:52:13.024Z,5.80
2023-04-02T12:54:49.927Z,4.00
2023-04-02T12:57:30.300Z,4.40
2023-04-02T13:00:06.554Z,5.70
2023-04-02T13:03:22.297Z,5.00
2023-04-02T13:06:17.750Z,5.20
2023-04-02T13:08:48.426Z,5.90
2023-04-02T13:42:03.230Z,4.90
2023-04-02T13:44:37.142Z,8.30
2023-04-02T13:47:18.550Z,4.80
2023-04-02T13:49:45.329Z,6.40
2023-04-02T13:52:16.169Z,6.90
2023-04-02T13:54:48.255Z,6.50
2023-04-02T13:57:15.539Z,7.50
2023-04-02T13:59:42.754Z,6.90
2023-04-02T14:02:18.922Z,6.30
2023-04-02T14:04:52.077Z,6.20
2023-04-02T14:07:44.402Z,6.60
2023-04-02T14:10:28.572Z,9.80
2023-04-02T14:13:11.543Z,7.50
2023-04-02T14:15:44.041Z,12.60
2023-04-02T14:18:17.554Z,9.00
2023-04-02T14:21:21.779Z,7.30
2023-04-02T14:24:18.078Z,7.60
2023-04-02T14:27:05.076Z,8.60
2023-04-02T14:33:54.008Z,9.50
2023-04-02T14:37:21.815Z,8.50
2023-04-02T15:15:57.999Z,5.60
2023-04-02T15:42:06.367Z,3.10
2023-04-02T16:13:27.480Z,6.50
2023-04-02T17:55:04.528Z,15.90
2023-04-02T17:58:14.074Z,16.60
2023-04-02T20:14:44.848Z,13.40
2023-04-02T21:06:37.277Z,12.80
2023-04-02T21:31:12.294Z,6.50
2023-04-02T21:33:48.306Z,7.60
2023-04-02T21:36:18.054Z,6.20
